Terminal Aerodrome Forecast
Issued by NWS

Home | Current Version | Previous Version | Graphics & Text | Print | Product List | Glossary On
Versions: 1 2 3 4 5 6 7 8 9 10 11 12 13 14 15 16 17 18 19 20 21 22 23 24 25 26 27 28 29 30
885
FTUS43 KLOT 172107 AAA
TAFORD
TAF AMD
KORD 172107Z 1721/1824 04007KT P6SM FEW030 SCT250
     FM180200 VRB03KT P6SM SKC
     FM181400 20004KT P6SM FEW250
     FM182000 09007KT P6SM FEW250=

USA.gov is the U.S. government's official web portal to all federal, state and local government web resources and services.